createdAt,value
2023-05-19T00:01:48.846Z,9.02
2023-05-19T00:04:16.616Z,5.03
2023-05-19T00:06:46.727Z,4.78
2023-05-19T00:09:13.776Z,4.93
2023-05-19T00:11:40.971Z,5.75
2023-05-19T00:14:09.556Z,6.72
2023-05-19T00:16:38.030Z,6.00
2023-05-19T00:19:05.672Z,7.50
2023-05-19T00:21:32.865Z,5.93
2023-05-19T00:23:59.681Z,6.93
2023-05-19T00:26:27.182Z,5.38
2023-05-19T00:28:54.068Z,5.22
2023-05-19T00:31:21.053Z,5.65
2023-05-19T00:33:47.900Z,4.65
2023-05-19T00:36:14.696Z,5.60
2023-05-19T00:38:41.498Z,5.82
2023-05-19T00:41:08.348Z,3.63
2023-05-19T00:43:35.164Z,5.13
2023-05-19T00:46:02.159Z,5.53
2023-05-19T00:48:29.099Z,6.13
2023-05-19T00:51:02.140Z,4.90
2023-05-19T00:53:29.440Z,6.70
2023-05-19T00:55:56.513Z,5.10
2023-05-19T00:58:23.930Z,6.95
2023-05-19T01:00:50.999Z,4.72
2023-05-19T01:03:20.565Z,7.60
2023-05-19T01:05:53.693Z,4.85
2023-05-19T01:08:20.728Z,9.35
2023-05-19T01:10:47.613Z,6.07
2023-05-19T01:13:14.585Z,6.47
2023-05-19T01:16:12.439Z,6.78
2023-05-19T01:18:58.532Z,4.65
2023-05-19T01:21:44.592Z,7.57
2023-05-19T01:24:24.648Z,4.85
2023-05-19T01:27:35.473Z,5.07
2023-05-19T01:30:26.606Z,3.92
2023-05-19T01:32:54.934Z,5.45
2023-05-19T01:35:26.108Z,5.68
2023-05-19T01:37:55.917Z,4.55
2023-05-19T01:40:23.029Z,4.38
2023-05-19T01:42:50.365Z,4.57
2023-05-19T01:45:17.449Z,4.47
2023-05-19T01:47:46.348Z,4.97
2023-05-19T01:50:13.206Z,4.35
2023-05-19T01:52:40.042Z,5.47
2023-05-19T01:55:07.585Z,7.50
2023-05-19T01:58:03.027Z,6.57
2023-05-19T02:00:41.886Z,4.93
2023-05-19T02:03:11.473Z,4.65
2023-05-19T02:05:44.327Z,5.85
2023-05-19T02:08:18.121Z,3.85
2023-05-19T02:10:48.591Z,5.38
2023-05-19T02:13:15.440Z,3.92
2023-05-19T02:15:42.535Z,3.28
2023-05-19T02:18:12.392Z,4.68
2023-05-19T02:20:39.820Z,13.70
2023-05-19T02:23:06.769Z,8.07
2023-05-19T02:25:33.617Z,5.97
2023-05-19T02:28:00.513Z,4.30
2023-05-19T02:30:27.429Z,5.78
2023-05-19T02:32:54.410Z,5.80
2023-05-19T02:35:21.638Z,5.40
2023-05-19T02:37:48.533Z,4.63
2023-05-19T02:40:15.439Z,4.35
2023-05-19T02:42:42.292Z,5.10
2023-05-19T02:45:09.470Z,6.18
2023-05-19T02:47:37.220Z,5.40
2023-05-19T02:50:05.515Z,9.48
2023-05-19T02:52:32.353Z,6.05
2023-05-19T02:54:59.195Z,3.75
2023-05-19T02:57:26.949Z,6.13
2023-05-19T02:59:53.798Z,3.90
2023-05-19T03:02:20.573Z,5.63
2023-05-19T03:04:47.400Z,7.15
2023-05-19T03:07:14.292Z,5.65
2023-05-19T03:09:41.133Z,5.93
2023-05-19T03:12:08.102Z,5.28
2023-05-19T03:14:37.684Z,7.30
2023-05-19T03:17:07.742Z,5.28
2023-05-19T03:19:34.718Z,6.78
2023-05-19T03:22:01.547Z,5.15
2023-05-19T03:24:28.351Z,4.93
2023-05-19T03:26:55.743Z,5.20
2023-05-19T03:29:22.671Z,4.85
2023-05-19T03:31:49.476Z,4.20
2023-05-19T03:34:16.360Z,6.22
2023-05-19T03:36:45.076Z,4.35
2023-05-19T03:39:12.146Z,4.40
2023-05-19T03:41:38.949Z,5.55
2023-05-19T03:44:05.928Z,4.95
2023-05-19T03:46:32.703Z,6.47
2023-05-19T03:48:59.516Z,3.97
2023-05-19T03:51:28.670Z,6.78
2023-05-19T03:53:55.926Z,3.72
2023-05-19T03:56:23.779Z,4.68
2023-05-19T03:58:50.622Z,3.97
2023-05-19T04:01:17.497Z,6.03
2023-05-19T04:03:44.394Z,5.32
2023-05-19T04:06:11.282Z,3.95
2023-05-19T04:08:38.084Z,6.45
2023-05-19T04:11:04.992Z,5.50
2023-05-19T04:13:34.902Z,5.63
2023-05-19T04:16:01.865Z,7.40
2023-05-19T04:18:29.368Z,4.57
2023-05-19T04:20:56.368Z,4.18
2023-05-19T04:23:23.205Z,9.43
2023-05-19T04:25:50.119Z,6.70
2023-05-19T04:28:18.102Z,6.18
2023-05-19T04:30:46.706Z,6.55
2023-05-19T04:33:13.870Z,8.50
2023-05-19T04:35:40.738Z,3.80
2023-05-19T04:38:07.715Z,5.20
2023-05-19T04:40:34.736Z,10.60
2023-05-19T04:43:02.356Z,5.53
2023-05-19T04:45:29.302Z,3.67
2023-05-19T04:47:58.287Z,3.85
2023-05-19T04:50:25.437Z,6.70
2023-05-19T04:52:52.312Z,5.97
2023-05-19T04:55:19.757Z,7.15
2023-05-19T04:57:47.025Z,5.65
2023-05-19T05:00:14.570Z,6.22
2023-05-19T05:02:42.903Z,4.88
2023-05-19T05:05:10.211Z,4.38
2023-05-19T05:07:37.094Z,5.07
2023-05-19T05:10:04.425Z,3.67
2023-05-19T05:12:32.306Z,4.13
2023-05-19T05:14:59.840Z,5.07
2023-05-19T05:17:27.212Z,7.55
2023-05-19T05:19:54.332Z,5.65
2023-05-19T05:22:21.512Z,3.45
2023-05-19T05:24:48.821Z,5.03
2023-05-19T05:27:15.769Z,5.70
2023-05-19T05:29:42.628Z,4.13
2023-05-19T05:32:09.511Z,6.53
2023-05-19T05:34:38.149Z,5.20
2023-05-19T05:37:05.196Z,6.68
2023-05-19T05:39:32.059Z,7.65
2023-05-19T05:41:58.899Z,6.10
2023-05-19T05:44:25.751Z,7.13
2023-05-19T05:46:52.905Z,8.85
2023-05-19T05:49:19.982Z,6.38
2023-05-19T05:51:54.651Z,5.63
2023-05-19T05:54:32.453Z,8.00
2023-05-19T05:56:59.467Z,5.15
2023-05-19T05:59:26.524Z,6.80
2023-05-19T06:01:53.516Z,5.55
2023-05-19T06:04:21.365Z,5.90
2023-05-19T06:06:48.245Z,7.13
2023-05-19T06:09:15.056Z,4.50
2023-05-19T06:11:41.875Z,6.63
2023-05-19T06:14:08.790Z,5.85
2023-05-19T06:16:35.779Z,6.05
2023-05-19T06:19:02.753Z,4.93
2023-05-19T06:21:29.624Z,3.78
2023-05-19T06:23:56.433Z,6.25
2023-05-19T06:26:23.313Z,6.35
2023-05-19T06:28:50.147Z,5.00
2023-05-19T06:31:17.106Z,6.35
2023-05-19T06:33:43.976Z,6.43
2023-05-19T06:36:10.950Z,6.80
2023-05-19T06:38:37.786Z,5.55
2023-05-19T06:41:04.724Z,4.55
2023-05-19T06:43:32.812Z,6.32
2023-05-19T06:45:59.694Z,5.70
2023-05-19T06:48:26.565Z,9.43
2023-05-19T06:50:53.428Z,5.10
2023-05-19T06:53:21.406Z,6.32
2023-05-19T06:55:58.679Z,7.65
2023-05-19T06:58:26.872Z,7.33
2023-05-19T07:00:54.233Z,6.45
2023-05-19T07:03:21.363Z,5.57
2023-05-19T07:05:48.277Z,9.23
2023-05-19T07:08:15.103Z,4.80
2023-05-19T07:10:41.890Z,5.30
2023-05-19T07:13:08.712Z,6.53
2023-05-19T07:15:35.545Z,4.68
2023-05-19T07:18:02.374Z,5.93
2023-05-19T07:20:29.329Z,10.57
2023-05-19T07:22:56.144Z,8.40
2023-05-19T07:25:22.967Z,6.55
2023-05-19T07:27:49.782Z,22.60
2023-05-19T07:30:16.603Z,8.02
2023-05-19T07:32:43.564Z,6.00
2023-05-19T07:35:10.636Z,5.05
2023-05-19T07:37:37.491Z,12.05
2023-05-19T07:40:05.117Z,7.57
2023-05-19T07:42:31.931Z,6.13
2023-05-19T07:44:58.753Z,5.68
2023-05-19T07:47:25.981Z,5.97
2023-05-19T07:49:52.853Z,4.22
2023-05-19T07:52:19.634Z,3.97
2023-05-19T07:54:46.504Z,3.40
2023-05-19T07:57:14.604Z,4.45
2023-05-19T07:59:41.416Z,4.55
2023-05-19T08:02:08.326Z,3.60
2023-05-19T08:04:35.222Z,3.58
2023-05-19T08:07:02.116Z,2.58
2023-05-19T08:09:28.914Z,3.58
2023-05-19T08:11:55.753Z,2.05
2023-05-19T08:14:22.973Z,2.10
2023-05-19T08:16:50.141Z,5.90
2023-05-19T08:19:17.086Z,4.38
2023-05-19T08:21:44.779Z,2.30
2023-05-19T08:24:11.738Z,1.38
2023-05-19T08:26:38.611Z,1.30
2023-05-19T08:29:05.391Z,2.97
2023-05-19T08:31:32.674Z,1.27
2023-05-19T08:33:59.941Z,1.15
2023-05-19T08:36:27.682Z,1.00
2023-05-19T08:38:54.476Z,1.90
2023-05-19T08:41:23.271Z,1.13
2023-05-19T08:43:50.231Z,1.67
2023-05-19T08:46:17.120Z,1.48
2023-05-19T08:48:44.707Z,1.52
2023-05-19T08:51:11.476Z,0.73
2023-05-19T08:53:40.762Z,0.98
2023-05-19T08:56:18.653Z,1.50
2023-05-19T08:58:46.015Z,1.77
2023-05-19T09:01:19.185Z,1.67
2023-05-19T09:03:46.891Z,1.73
2023-05-19T09:06:13.803Z,1.70
2023-05-19T09:08:41.147Z,1.77
2023-05-19T09:11:11.213Z,4.30
2023-05-19T09:13:38.340Z,1.35
2023-05-19T09:16:05.546Z,0.95
2023-05-19T09:18:32.487Z,2.20
2023-05-19T09:21:00.607Z,1.85
2023-05-19T09:23:36.904Z,1.20
2023-05-19T09:26:07.217Z,1.42
2023-05-19T09:28:35.385Z,1.75
2023-05-19T09:31:09.536Z,0.95
2023-05-19T09:33:37.385Z,1.20
2023-05-19T09:36:08.735Z,1.73
2023-05-19T09:38:36.420Z,1.15
2023-05-19T09:41:03.952Z,1.30
2023-05-19T09:43:33.348Z,1.77
2023-05-19T09:46:01.770Z,1.25
2023-05-19T09:48:28.767Z,3.95
2023-05-19T09:50:56.721Z,4.57
2023-05-19T09:53:24.201Z,4.53
2023-05-19T09:55:51.383Z,2.58
2023-05-19T09:58:21.682Z,1.88
2023-05-19T10:00:48.600Z,4.20
2023-05-19T10:03:16.549Z,2.15
2023-05-19T10:05:43.714Z,2.53
2023-05-19T10:08:10.581Z,2.13
2023-05-19T10:10:38.364Z,3.13
2023-05-19T10:13:05.965Z,2.33
2023-05-19T10:15:36.108Z,3.55
2023-05-19T10:18:05.283Z,2.03
2023-05-19T10:20:32.365Z,2.05
2023-05-19T10:22:59.331Z,4.88
2023-05-19T10:25:26.344Z,2.80
2023-05-19T10:28:02.350Z,1.75
2023-05-19T10:30:31.972Z,2.10
2023-05-19T10:33:00.377Z,2.45
2023-05-19T10:36:08.474Z,5.70
2023-05-19T10:38:44.335Z,3.10
2023-05-19T10:41:33.683Z,2.47
2023-05-19T10:46:43.248Z,3.15
2023-05-19T10:49:10.168Z,3.03
2023-05-19T10:51:37.283Z,3.13
2023-05-19T10:54:11.025Z,4.20
2023-05-19T10:56:42.402Z,2.92
2023-05-19T10:59:09.511Z,4.97
2023-05-19T11:01:37.336Z,2.55
2023-05-19T11:04:13.854Z,5.90
2023-05-19T11:06:41.304Z,10.55
2023-05-19T11:09:15.463Z,4.47
2023-05-19T11:11:49.679Z,3.28
2023-05-19T11:14:18.970Z,3.78
2023-05-19T11:16:52.776Z,3.75
2023-05-19T11:19:20.139Z,3.72
2023-05-19T11:21:52.392Z,3.38
2023-05-19T11:24:45.843Z,2.55
2023-05-19T11:27:27.876Z,3.60
2023-05-19T11:29:56.019Z,2.50
2023-05-19T11:32:26.857Z,2.93
2023-05-19T11:34:53.927Z,3.30
2023-05-19T11:37:20.922Z,2.50
2023-05-19T11:39:47.800Z,3.10
2023-05-19T11:42:14.785Z,3.85
2023-05-19T11:44:41.796Z,4.22
2023-05-19T11:47:09.250Z,3.55
2023-05-19T11:49:36.090Z,3.03
2023-05-19T11:52:03.963Z,5.43
2023-05-19T11:54:36.602Z,4.13
2023-05-19T11:57:03.916Z,3.67
2023-05-19T11:59:36.188Z,7.75
2023-05-19T12:02:15.620Z,4.55
2023-05-19T12:04:42.606Z,62.75
2023-05-19T12:07:15.347Z,16.13
2023-05-19T12:09:42.639Z,9.43
2023-05-19T12:12:09.556Z,5.82
2023-05-19T12:14:37.404Z,5.80
2023-05-19T12:17:12.425Z,3.92
2023-05-19T12:19:39.998Z,4.85
2023-05-19T12:22:07.289Z,9.63
2023-05-19T12:24:35.154Z,4.25
2023-05-19T12:27:29.054Z,4.50
2023-05-19T12:29:57.313Z,4.70
2023-05-19T12:32:25.660Z,6.03
2023-05-19T12:34:53.172Z,5.68
2023-05-19T12:37:20.030Z,7.03
2023-05-19T12:39:48.343Z,7.00
2023-05-19T12:42:15.711Z,7.20
2023-05-19T12:44:47.650Z,6.15
2023-05-19T12:47:15.788Z,7.07
2023-05-19T12:50:11.309Z,10.88
2023-05-19T12:52:48.753Z,7.10
2023-05-19T12:55:16.569Z,10.10
2023-05-19T12:57:44.911Z,8.88
2023-05-19T13:00:20.820Z,8.52
2023-05-19T13:03:00.270Z,9.32
2023-05-19T13:05:28.381Z,8.57
2023-05-19T13:07:59.548Z,14.55
2023-05-19T13:10:29.917Z,9.20
2023-05-19T13:12:57.183Z,10.05
2023-05-19T13:15:25.050Z,8.68
2023-05-19T13:17:52.338Z,10.18
2023-05-19T13:20:19.813Z,11.30
2023-05-19T13:22:47.723Z,9.00
2023-05-19T13:25:14.661Z,8.07
2023-05-19T13:27:41.457Z,10.52
2023-05-19T13:30:08.897Z,9.98
2023-05-19T13:32:35.822Z,9.45
2023-05-19T13:35:02.699Z,9.80
2023-05-19T13:37:29.680Z,11.77
2023-05-19T13:40:00.641Z,10.40
2023-05-19T13:42:28.164Z,10.32
2023-05-19T13:44:56.225Z,9.85
2023-05-19T13:47:26.010Z,12.95
2023-05-19T13:49:53.179Z,11.73
2023-05-19T13:52:22.930Z,11.98
2023-05-19T13:54:49.817Z,12.15
2023-05-19T13:57:16.871Z,11.18
2023-05-19T13:59:57.754Z,13.38
2023-05-19T14:02:29.967Z,11.82
2023-05-19T14:04:57.613Z,11.00
2023-05-19T14:07:25.608Z,11.68
2023-05-19T14:09:52.880Z,12.83
2023-05-19T14:12:23.209Z,15.68
2023-05-19T14:14:52.251Z,11.73
2023-05-19T14:17:19.113Z,12.50
2023-05-19T14:19:46.004Z,10.95
2023-05-19T14:22:13.444Z,11.13
2023-05-19T14:24:41.575Z,13.30
2023-05-19T14:27:08.459Z,11.43
2023-05-19T14:29:35.490Z,10.32
2023-05-19T14:32:03.447Z,10.65
2023-05-19T14:34:30.719Z,12.17
2023-05-19T14:36:57.839Z,11.98
2023-05-19T14:39:24.722Z,11.48
2023-05-19T14:41:52.986Z,11.57
2023-05-19T14:44:19.893Z,11.60
2023-05-19T14:46:46.792Z,11.18
2023-05-19T14:49:13.682Z,17.60
2023-05-19T14:51:40.580Z,13.45
2023-05-19T14:54:07.430Z,12.63
2023-05-19T14:56:34.488Z,14.10
2023-05-19T14:59:01.352Z,11.75
2023-05-19T15:01:28.196Z,12.48
2023-05-19T15:03:55.068Z,10.45
2023-05-19T15:06:22.212Z,11.73
2023-05-19T15:08:49.113Z,9.40
2023-05-19T15:11:15.953Z,8.10
2023-05-19T15:13:42.756Z,8.02
2023-05-19T15:16:17.506Z,5.68
2023-05-19T15:18:45.151Z,6.22
2023-05-19T15:21:12.221Z,8.00
2023-05-19T15:23:39.077Z,6.32
2023-05-19T15:26:05.991Z,8.10
2023-05-19T15:28:33.692Z,8.32
2023-05-19T15:31:00.607Z,7.70
2023-05-19T15:33:27.415Z,7.80
2023-05-19T15:35:54.356Z,7.95
2023-05-19T15:38:21.242Z,10.00
2023-05-19T15:40:48.143Z,8.30
2023-05-19T15:43:15.054Z,8.50
2023-05-19T15:45:41.952Z,8.95
2023-05-19T15:48:08.864Z,9.32
2023-05-19T15:50:36.141Z,11.60
2023-05-19T15:53:03.466Z,10.63
2023-05-19T15:55:30.541Z,10.52
2023-05-19T15:57:57.361Z,10.40
2023-05-19T16:00:24.232Z,10.65
2023-05-19T16:02:51.210Z,11.65
2023-05-19T16:05:18.282Z,9.98
2023-05-19T16:07:45.230Z,10.35
2023-05-19T16:10:12.171Z,10.07
2023-05-19T16:12:39.140Z,12.38
2023-05-19T16:15:06.526Z,12.02
2023-05-19T16:17:33.547Z,13.07
2023-05-19T16:20:00.408Z,13.23
2023-05-19T16:22:27.289Z,13.07
2023-05-19T16:24:54.133Z,13.10
2023-05-19T16:27:20.937Z,13.38
2023-05-19T16:29:47.765Z,12.93
2023-05-19T16:32:14.616Z,13.43
2023-05-19T16:34:41.512Z,24.15
2023-05-19T16:37:08.410Z,13.70
2023-05-19T16:39:38.269Z,13.68
2023-05-19T16:42:05.586Z,13.43
2023-05-19T16:44:32.434Z,13.52
2023-05-19T16:46:59.267Z,14.02
2023-05-19T16:49:26.216Z,12.80
2023-05-19T16:51:54.214Z,13.23
2023-05-19T16:54:21.463Z,14.23
2023-05-19T16:56:48.306Z,12.43
2023-05-19T16:59:15.122Z,12.07
2023-05-19T17:01:42.126Z,12.18
2023-05-19T17:04:09.055Z,11.18
2023-05-19T17:06:35.970Z,11.40
2023-05-19T17:09:02.843Z,13.60
2023-05-19T17:11:29.674Z,13.00
2023-05-19T17:13:56.590Z,13.20
2023-05-19T17:16:24.009Z,13.23
2023-05-19T17:18:51.203Z,13.27
2023-05-19T17:21:18.105Z,13.55
2023-05-19T17:23:44.977Z,31.15
2023-05-19T17:26:12.118Z,13.05
2023-05-19T17:28:38.967Z,28.00
2023-05-19T17:31:12.497Z,16.02
2023-05-19T17:33:41.966Z,15.60
2023-05-19T17:36:09.155Z,19.38
2023-05-19T17:38:40.259Z,16.40
2023-05-19T17:41:10.440Z,13.95
2023-05-19T17:43:38.040Z,14.73
2023-05-19T17:46:05.175Z,14.75
2023-05-19T17:48:32.291Z,14.25
2023-05-19T17:50:59.316Z,14.77
2023-05-19T17:53:26.321Z,15.85
2023-05-19T17:55:58.437Z,14.65
2023-05-19T17:58:25.805Z,15.05
2023-05-19T18:00:52.904Z,16.08
2023-05-19T18:03:21.221Z,15.15
2023-05-19T18:05:48.860Z,17.05
2023-05-19T18:08:16.603Z,15.85
2023-05-19T18:10:43.631Z,16.30
2023-05-19T18:13:11.477Z,17.05
2023-05-19T18:15:38.324Z,17.63
2023-05-19T18:18:07.511Z,17.50
2023-05-19T18:20:44.206Z,18.25
2023-05-19T18:23:11.396Z,19.45
2023-05-19T18:25:38.353Z,19.45
2023-05-19T18:28:05.336Z,20.02
2023-05-19T18:30:32.438Z,21.00
2023-05-19T18:33:02.217Z,20.83
2023-05-19T18:35:29.182Z,20.60
2023-05-19T18:37:57.416Z,20.13
2023-05-19T18:40:24.687Z,20.13
2023-05-19T18:42:51.595Z,19.33
2023-05-19T18:45:18.512Z,21.50
2023-05-19T18:47:45.825Z,21.40
2023-05-19T18:50:13.223Z,20.60
2023-05-19T18:52:40.411Z,20.90
2023-05-19T18:55:07.772Z,20.90
2023-05-19T18:57:34.675Z,18.75
2023-05-19T19:00:01.599Z,22.15
2023-05-19T19:02:28.508Z,21.42
2023-05-19T19:04:55.631Z,24.13
2023-05-19T19:07:24.337Z,19.27
2023-05-19T19:09:51.161Z,25.02
2023-05-19T19:12:19.608Z,21.15
2023-05-19T19:14:47.166Z,23.15
2023-05-19T19:17:14.202Z,21.85
2023-05-19T19:19:41.328Z,20.52
2023-05-19T19:22:08.303Z,20.67
2023-05-19T19:24:35.931Z,20.20
2023-05-19T19:27:03.010Z,21.98
2023-05-19T19:29:30.030Z,20.88
2023-05-19T19:31:57.025Z,21.38
2023-05-19T19:34:23.945Z,19.75
2023-05-19T19:36:50.831Z,20.83
2023-05-19T19:39:17.806Z,18.30
2023-05-19T19:41:44.696Z,20.20
2023-05-19T19:44:11.504Z,22.08
2023-05-19T19:46:38.345Z,20.10
2023-05-19T19:49:05.263Z,21.35
2023-05-19T19:51:32.088Z,20.92
2023-05-19T19:53:59.144Z,21.67
2023-05-19T19:56:27.491Z,20.83
2023-05-19T19:58:56.853Z,21.20
2023-05-19T20:01:27.620Z,20.90
2023-05-19T20:03:55.448Z,20.60
2023-05-19T20:06:22.403Z,21.30
2023-05-19T20:08:49.495Z,22.35
2023-05-19T20:11:16.633Z,20.48
2023-05-19T20:13:43.547Z,23.40
2023-05-19T20:16:10.405Z,24.15
2023-05-19T20:18:37.333Z,22.00
2023-05-19T20:21:04.175Z,18.40
2023-05-19T20:23:31.073Z,19.17
2023-05-19T20:26:11.031Z,21.83
2023-05-19T20:28:39.708Z,21.45
2023-05-19T20:31:06.893Z,20.27
2023-05-19T20:33:33.778Z,21.77
2023-05-19T20:36:00.603Z,25.92
2023-05-19T20:38:27.412Z,23.92
2023-05-19T20:40:54.645Z,23.48
2023-05-19T20:43:21.603Z,20.10
2023-05-19T20:45:48.495Z,23.85
2023-05-19T20:48:18.199Z,41.13
2023-05-19T20:50:45.161Z,32.50
2023-05-19T20:53:11.944Z,20.63
2023-05-19T20:55:39.131Z,20.23
2023-05-19T20:58:06.145Z,22.33
2023-05-19T21:00:33.323Z,24.10
2023-05-19T21:03:00.821Z,21.48
2023-05-19T21:05:27.778Z,21.55
2023-05-19T21:07:54.610Z,23.63
2023-05-19T21:10:21.485Z,20.48
2023-05-19T21:12:48.274Z,24.17
2023-05-19T21:15:15.149Z,23.80
2023-05-19T21:17:42.022Z,22.83
2023-05-19T21:20:09.461Z,18.08
2023-05-19T21:22:36.407Z,18.08
2023-05-19T21:25:03.785Z,19.50
2023-05-19T21:27:33.434Z,18.63
2023-05-19T21:30:00.917Z,17.95
2023-05-19T21:32:29.642Z,17.95
2023-05-19T21:34:56.488Z,21.85
2023-05-19T21:37:23.296Z,19.30
2023-05-19T21:39:50.134Z,21.98
2023-05-19T21:42:16.976Z,19.35
2023-05-19T21:44:43.805Z,18.77
2023-05-19T21:47:10.673Z,17.95
2023-05-19T21:49:40.000Z,15.93
2023-05-19T21:52:09.824Z,21.67
2023-05-19T21:54:36.648Z,17.88
2023-05-19T21:57:03.747Z,17.63
2023-05-19T21:59:30.651Z,17.83
2023-05-19T22:01:58.247Z,24.73
2023-05-19T22:04:25.413Z,24.95
2023-05-19T22:06:52.465Z,20.17
2023-05-19T22:09:19.331Z,27.25
2023-05-19T22:11:46.314Z,25.23
2023-05-19T22:14:13.186Z,25.20
2023-05-19T22:16:40.112Z,23.23
2023-05-19T22:19:07.094Z,26.42
2023-05-19T22:21:33.914Z,22.63
2023-05-19T22:24:00.905Z,21.75
2023-05-19T22:26:27.713Z,19.17
2023-05-19T22:28:55.322Z,20.38
2023-05-19T22:31:22.375Z,22.42
2023-05-19T22:33:49.305Z,22.88
2023-05-19T22:36:16.536Z,25.10
2023-05-19T22:38:43.422Z,24.27
2023-05-19T22:41:10.292Z,17.08
2023-05-19T22:43:37.513Z,19.38
2023-05-19T22:46:04.561Z,17.17
2023-05-19T22:48:31.691Z,19.02
2023-05-19T22:50:58.499Z,16.15
2023-05-19T22:53:25.324Z,16.05
2023-05-19T22:55:52.169Z,15.27
2023-05-19T22:58:19.025Z,14.82
2023-05-19T23:00:46.053Z,19.63
2023-05-19T23:03:12.974Z,14.25
2023-05-19T23:05:40.577Z,18.50
2023-05-19T23:08:07.485Z,17.25
2023-05-19T23:10:34.430Z,16.35
2023-05-19T23:13:01.280Z,15.05
2023-05-19T23:15:28.128Z,14.57
2023-05-19T23:17:55.002Z,14.90
2023-05-19T23:20:21.951Z,17.55
2023-05-19T23:22:48.837Z,19.80
2023-05-19T23:25:15.657Z,19.20
2023-05-19T23:27:42.578Z,21.52
2023-05-19T23:30:09.705Z,22.77
2023-05-19T23:32:36.913Z,22.45
2023-05-19T23:35:14.082Z,24.30
2023-05-19T23:37:40.926Z,22.67
2023-05-19T23:40:08.199Z,21.35
2023-05-19T23:42:35.140Z,23.70
2023-05-19T23:45:06.029Z,22.48
2023-05-19T23:48:24.409Z,21.80
2023-05-19T23:50:51.509Z,23.05
2023-05-19T23:53:18.678Z,20.10
2023-05-19T23:55:46.147Z,19.65
2023-05-19T23:58:12.964Z,20.10
